sensor_id;sensor_type;location;lat;lon;timestamp;pressure;altitude;pressure_sealevel;temperature;humidity
10014;BME280;45684;48.358;10.746;2023-08-08T00:00:07;96402.16;;;14.08;nan
10014;BME280;45684;48.358;10.746;2023-08-08T00:02:38;96393.22;;;14.08;nan
10014;BME280;45684;48.358;10.746;2023-08-08T00:05:08;96397.56;;;14.09;nan
10014;BME280;45684;48.358;10.746;2023-08-08T00:07:36;96395.34;;;14.02;nan
10014;BME280;45684;48.358;10.746;2023-08-08T00:10:05;96405.91;;;14.03;nan
10014;BME280;45684;48.358;10.746;2023-08-08T00:12:33;96399.84;;;13.98;nan
10014;BME280;45684;48.358;10.746;2023-08-08T00:15:01;96404.50;;;13.97;nan
10014;BME280;45684;48.358;10.746;2023-08-08T00:17:29;96398.41;;;14.00;nan
10014;BME280;45684;48.358;10.746;2023-08-08T00:19:58;96395.34;;;14.02;nan
10014;BME280;45684;48.358;10.746;2023-08-08T00:22:26;96399.19;;;14.01;nan
10014;BME280;45684;48.358;10.746;2023-08-08T00:24:54;96398.06;;;14.02;nan
10014;BME280;45684;48.358;10.746;2023-08-08T00:27:22;96401.00;;;13.97;nan
10014;BME280;45684;48.358;10.746;2023-08-08T00:29:49;96406.44;;;13.97;nan
10014;BME280;45684;48.358;10.746;2023-08-08T00:32:19;96399.91;;;13.89;nan
10014;BME280;45684;48.358;10.746;2023-08-08T00:34:47;96398.47;;;13.92;nan
10014;BME280;45684;48.358;10.746;2023-08-08T00:37:18;96401.38;;;13.87;nan
10014;BME280;45684;48.358;10.746;2023-08-08T00:39:46;96397.09;;;13.86;nan
10014;BME280;45684;48.358;10.746;2023-08-08T00:42:13;96403.19;;;13.83;nan
10014;BME280;45684;48.358;10.746;2023-08-08T00:44:41;96397.59;;;13.79;nan
10014;BME280;45684;48.358;10.746;2023-08-08T00:47:09;96401.09;;;13.79;nan
10014;BME280;45684;48.358;10.746;2023-08-08T00:49:38;96389.78;;;13.77;nan
10014;BME280;45684;48.358;10.746;2023-08-08T00:52:07;96395.22;;;13.77;nan
10014;BME280;45684;48.358;10.746;2023-08-08T00:54:37;96392.50;;;13.77;nan
10014;BME280;45684;48.358;10.746;2023-08-08T00:57:05;96386.47;;;13.72;nan
10014;BME280;45684;48.358;10.746;2023-08-08T00:59:33;96388.72;;;13.70;nan
10014;BME280;45684;48.358;10.746;2023-08-08T01:02:01;96382.81;;;13.68;nan
10014;BME280;45684;48.358;10.746;2023-08-08T01:04:29;96371.81;;;13.64;nan
10014;BME280;45684;48.358;10.746;2023-08-08T01:07:01;96375.50;;;13.60;nan
10014;BME280;45684;48.358;10.746;2023-08-08T01:09:35;96379.22;;;13.55;nan
10014;BME280;45684;48.358;10.746;2023-08-08T01:12:08;96377.16;;;13.52;nan
10014;BME280;45684;48.358;10.746;2023-08-08T01:14:38;96374.63;;;13.47;nan
10014;BME280;45684;48.358;10.746;2023-08-08T01:17:08;96372.25;;;13.45;nan
10014;BME280;45684;48.358;10.746;2023-08-08T01:19:36;96366.81;;;13.45;nan
10014;BME280;45684;48.358;10.746;2023-08-08T01:22:07;96375.75;;;13.46;nan
10014;BME280;45684;48.358;10.746;2023-08-08T01:24:38;96368.09;;;13.48;nan
10014;BME280;45684;48.358;10.746;2023-08-08T01:27:06;96371.72;;;13.52;nan
10014;BME280;45684;48.358;10.746;2023-08-08T01:29:34;96374.44;;;13.52;nan
10014;BME280;45684;48.358;10.746;2023-08-08T01:32:02;96366.63;;;13.50;nan
10014;BME280;45684;48.358;10.746;2023-08-08T01:34:31;96370.28;;;13.55;nan
10014;BME280;45684;48.358;10.746;2023-08-08T01:37:02;96372.22;;;13.54;nan
10014;BME280;45684;48.358;10.746;2023-08-08T01:39:32;96369.34;;;13.50;nan
10014;BME280;45684;48.358;10.746;2023-08-08T01:42:03;96358.47;;;13.50;nan
10014;BME280;45684;48.358;10.746;2023-08-08T01:44:34;96364.50;;;13.56;nan
10014;BME280;45684;48.358;10.746;2023-08-08T01:47:02;96358.06;;;13.61;nan
10014;BME280;45684;48.358;10.746;2023-08-08T01:49:31;96360.16;;;13.64;nan
10014;BME280;45684;48.358;10.746;2023-08-08T01:51:58;96361.53;;;13.70;nan
10014;BME280;45684;48.358;10.746;2023-08-08T01:54:27;96364.38;;;13.73;nan
10014;BME280;45684;48.358;10.746;2023-08-08T01:56:55;96355.25;;;13.78;nan
10014;BME280;45684;48.358;10.746;2023-08-08T01:59:24;96356.81;;;13.79;nan
10014;BME280;45684;48.358;10.746;2023-08-08T02:01:52;96356.63;;;13.84;nan
10014;BME280;45684;48.358;10.746;2023-08-08T02:04:21;96349.97;;;13.94;nan
10014;BME280;45684;48.358;10.746;2023-08-08T02:06:49;96341.16;;;13.97;nan
10014;BME280;45684;48.358;10.746;2023-08-08T02:09:16;96348.19;;;13.98;nan
10014;BME280;45684;48.358;10.746;2023-08-08T02:11:47;96341.88;;;14.06;nan
10014;BME280;45684;48.358;10.746;2023-08-08T02:14:15;96344.59;;;14.06;nan
10014;BME280;45684;48.358;10.746;2023-08-08T02:16:44;96346.97;;;14.08;nan
10014;BME280;45684;48.358;10.746;2023-08-08T02:19:12;96343.59;;;14.11;nan
10014;BME280;45684;48.358;10.746;2023-08-08T02:21:41;96345.66;;;14.14;nan
10014;BME280;45684;48.358;10.746;2023-08-08T02:24:09;96354.53;;;14.23;nan
10014;BME280;45684;48.358;10.746;2023-08-08T02:26:37;96340.94;;;14.23;nan
10014;BME280;45684;48.358;10.746;2023-08-08T02:29:07;96339.00;;;14.23;nan
10014;BME280;45684;48.358;10.746;2023-08-08T02:31:35;96334.78;;;14.14;nan
10014;BME280;45684;48.358;10.746;2023-08-08T02:34:04;96334.19;;;14.08;nan
10014;BME280;45684;48.358;10.746;2023-08-08T02:36:32;96346.53;;;14.06;nan
10014;BME280;45684;48.358;10.746;2023-08-08T02:39:01;96342.22;;;14.04;nan
10014;BME280;45684;48.358;10.746;2023-08-08T02:41:29;96351.84;;;14.02;nan
10014;BME280;45684;48.358;10.746;2023-08-08T02:43:57;96339.03;;;14.02;nan
10014;BME280;45684;48.358;10.746;2023-08-08T02:46:25;96344.59;;;14.06;nan
10014;BME280;45684;48.358;10.746;2023-08-08T02:48:53;96340.88;;;14.11;nan
10014;BME280;45684;48.358;10.746;2023-08-08T02:51:23;96347.13;;;14.11;nan
10014;BME280;45684;48.358;10.746;2023-08-08T02:53:51;96349.97;;;14.15;nan
10014;BME280;45684;48.358;10.746;2023-08-08T02:56:19;96343.66;;;14.23;nan
10014;BME280;45684;48.358;10.746;2023-08-08T02:58:49;96340.59;;;14.24;nan
10014;BME280;45684;48.358;10.746;2023-08-08T03:01:17;96347.31;;;14.27;nan
10014;BME280;45684;48.358;10.746;2023-08-08T03:03:47;96337.22;;;14.27;nan
10014;BME280;45684;48.358;10.746;2023-08-08T03:06:16;96341.97;;;14.30;nan
10014;BME280;45684;48.358;10.746;2023-08-08T03:08:46;96335.28;;;14.28;nan
10014;BME280;45684;48.358;10.746;2023-08-08T03:11:14;96342.31;;;14.29;nan
10014;BME280;45684;48.358;10.746;2023-08-08T03:13:42;96342.09;;;14.34;nan
10014;BME280;45684;48.358;10.746;2023-08-08T03:16:10;96337.78;;;14.33;nan
10014;BME280;45684;48.358;10.746;2023-08-08T03:18:38;96335.53;;;14.35;nan
10014;BME280;45684;48.358;10.746;2023-08-08T03:21:06;96341.44;;;14.37;nan
10014;BME280;45684;48.358;10.746;2023-08-08T03:23:34;96338.38;;;14.39;nan
10014;BME280;45684;48.358;10.746;2023-08-08T03:26:03;96336.44;;;14.39;nan
10014;BME280;45684;48.358;10.746;2023-08-08T03:28:32;96333.94;;;14.34;nan
10014;BME280;45684;48.358;10.746;2023-08-08T03:30:59;96338.13;;;14.32;nan
10014;BME280;45684;48.358;10.746;2023-08-08T03:33:30;96335.16;;;14.24;nan
10014;BME280;45684;48.358;10.746;2023-08-08T03:36:00;96323.94;;;14.26;nan
10014;BME280;45684;48.358;10.746;2023-08-08T03:38:28;96333.56;;;14.23;nan
10014;BME280;45684;48.358;10.746;2023-08-08T03:40:56;96337.09;;;14.24;nan
10014;BME280;45684;48.358;10.746;2023-08-08T03:43:25;96331.28;;;14.25;nan
10014;BME280;45684;48.358;10.746;2023-08-08T03:45:53;96326.00;;;14.29;nan
10014;BME280;45684;48.358;10.746;2023-08-08T03:48:21;96326.66;;;14.26;nan
10014;BME280;45684;48.358;10.746;2023-08-08T03:50:49;96318.19;;;14.27;nan
10014;BME280;45684;48.358;10.746;2023-08-08T03:53:18;96318.19;;;14.27;nan
10014;BME280;45684;48.358;10.746;2023-08-08T03:55:45;96324.94;;;14.21;nan
10014;BME280;45684;48.358;10.746;2023-08-08T03:58:15;96333.22;;;14.25;nan
10014;BME280;45684;48.358;10.746;2023-08-08T04:00:44;96327.44;;;14.26;nan
10014;BME280;45684;48.358;10.746;2023-08-08T04:03:13;96332.88;;;14.26;nan
10014;BME280;45684;48.358;10.746;2023-08-08T04:05:44;96335.41;;;14.32;nan
10014;BME280;45684;48.358;10.746;2023-08-08T04:08:14;96333.59;;;14.36;nan
10014;BME280;45684;48.358;10.746;2023-08-08T04:10:43;96341.31;;;14.34;nan
10014;BME280;45684;48.358;10.746;2023-08-08T04:13:11;96341.09;;;14.39;nan
10014;BME280;45684;48.358;10.746;2023-08-08T04:15:39;96336.44;;;14.39;nan
10014;BME280;45684;48.358;10.746;2023-08-08T04:18:08;96339.28;;;14.43;nan
10014;BME280;45684;48.358;10.746;2023-08-08T04:20:36;96341.00;;;14.47;nan
10014;BME280;45684;48.358;10.746;2023-08-08T04:23:04;96347.53;;;14.55;nan
10014;BME280;45684;48.358;10.746;2023-08-08T04:25:32;96344.31;;;14.53;nan
10014;BME280;45684;48.358;10.746;2023-08-08T04:28:00;96348.53;;;14.50;nan
10014;BME280;45684;48.358;10.746;2023-08-08T04:30:28;96353.28;;;14.53;nan
10014;BME280;45684;48.358;10.746;2023-08-08T04:32:55;96357.28;;;14.56;nan
10014;BME280;45684;48.358;10.746;2023-08-08T04:35:25;96359.88;;;14.52;nan
10014;BME280;45684;48.358;10.746;2023-08-08T04:37:53;96349.63;;;14.49;nan
10014;BME280;45684;48.358;10.746;2023-08-08T04:40:21;96348.31;;;14.56;nan
10014;BME280;45684;48.358;10.746;2023-08-08T04:42:49;96352.41;;;14.62;nan
10014;BME280;45684;48.358;10.746;2023-08-08T04:45:17;96351.59;;;14.61;nan
10014;BME280;45684;48.358;10.746;2023-08-08T04:47:45;96343.97;;;14.54;nan
10014;BME280;45684;48.358;10.746;2023-08-08T04:50:13;96345.25;;;14.57;nan
10014;BME280;45684;48.358;10.746;2023-08-08T04:52:42;96341.72;;;14.57;nan
10014;BME280;45684;48.358;10.746;2023-08-08T04:55:10;96345.03;;;14.62;nan
10014;BME280;45684;48.358;10.746;2023-08-08T04:57:37;96336.53;;;14.76;nan
10014;BME280;45684;48.358;10.746;2023-08-08T05:00:06;96340.75;;;14.86;nan
10014;BME280;45684;48.358;10.746;2023-08-08T05:02:35;96342.00;;;14.88;nan
10014;BME280;45684;48.358;10.746;2023-08-08T05:05:05;96341.19;;;15.00;nan
10014;BME280;45684;48.358;10.746;2023-08-08T05:07:33;96336.00;;;14.95;nan
10014;BME280;45684;48.358;10.746;2023-08-08T05:10:06;96342.94;;;14.92;nan
10014;BME280;45684;48.358;10.746;2023-08-08T05:12:34;96339.84;;;14.94;nan
10014;BME280;45684;48.358;10.746;2023-08-08T05:15:02;96334.97;;;14.99;nan
10014;BME280;45684;48.358;10.746;2023-08-08T05:17:30;96343.13;;;14.99;nan
10014;BME280;45684;48.358;10.746;2023-08-08T05:19:58;96349.63;;;15.07;nan
10014;BME280;45684;48.358;10.746;2023-08-08T05:22:26;96349.28;;;15.21;nan
10014;BME280;45684;48.358;10.746;2023-08-08T05:24:54;96346.44;;;15.29;nan
10014;BME280;45684;48.358;10.746;2023-08-08T05:27:23;96344.16;;;15.44;nan
10014;BME280;45684;48.358;10.746;2023-08-08T05:29:51;96346.16;;;15.59;nan
10014;BME280;45684;48.358;10.746;2023-08-08T05:32:19;96342.06;;;15.65;nan
10014;BME280;45684;48.358;10.746;2023-08-08T05:34:47;96336.84;;;15.72;nan
10014;BME280;45684;48.358;10.746;2023-08-08T05:37:15;96346.13;;;15.71;nan
10014;BME280;45684;48.358;10.746;2023-08-08T05:39:43;96346.38;;;15.78;nan
10014;BME280;45684;48.358;10.746;2023-08-08T05:42:11;96351.34;;;15.89;nan
10014;BME280;45684;48.358;10.746;2023-08-08T05:44:41;96347.31;;;15.98;nan
10014;BME280;45684;48.358;10.746;2023-08-08T05:47:09;96350.94;;;16.02;nan
10014;BME280;45684;48.358;10.746;2023-08-08T05:49:38;96345.34;;;16.11;nan
10014;BME280;45684;48.358;10.746;2023-08-08T05:52:08;96354.28;;;16.24;nan
10014;BME280;45684;48.358;10.746;2023-08-08T05:54:36;96349.72;;;16.28;nan
10014;BME280;45684;48.358;10.746;2023-08-08T05:57:05;96343.69;;;16.22;nan
10014;BME280;45684;48.358;10.746;2023-08-08T05:59:33;96335.47;;;16.35;nan
10014;BME280;45684;48.358;10.746;2023-08-08T06:02:02;96337.41;;;16.34;nan
10014;BME280;45684;48.358;10.746;2023-08-08T06:04:30;96348.59;;;16.45;nan
10014;BME280;45684;48.358;10.746;2023-08-08T06:06:58;96340.50;;;16.48;nan
10014;BME280;45684;48.358;10.746;2023-08-08T06:09:26;96344.41;;;16.63;nan
10014;BME280;45684;48.358;10.746;2023-08-08T06:11:54;96335.00;;;16.76;nan
10014;BME280;45684;48.358;10.746;2023-08-08T06:14:22;96339.34;;;16.93;nan
10014;BME280;45684;48.358;10.746;2023-08-08T06:16:50;96338.91;;;17.07;nan
10014;BME280;45684;48.358;10.746;2023-08-08T06:19:19;96340.97;;;17.29;nan
10014;BME280;45684;48.358;10.746;2023-08-08T06:21:47;96340.34;;;17.36;nan
10014;BME280;45684;48.358;10.746;2023-08-08T06:24:15;96344.03;;;17.44;nan
10014;BME280;45684;48.358;10.746;2023-08-08T06:26:43;96342.44;;;17.58;nan
10014;BME280;45684;48.358;10.746;2023-08-08T06:29:11;96348.22;;;17.57;nan
10014;BME280;45684;48.358;10.746;2023-08-08T06:31:40;96347.94;;;17.62;nan
10014;BME280;45684;48.358;10.746;2023-08-08T06:34:08;96351.75;;;17.73;nan
10014;BME280;45684;48.358;10.746;2023-08-08T06:36:38;96351.84;;;17.61;nan
10014;BME280;45684;48.358;10.746;2023-08-08T06:39:06;96343.50;;;17.38;nan
10014;BME280;45684;48.358;10.746;2023-08-08T06:41:33;96354.66;;;17.14;nan
10014;BME280;45684;48.358;10.746;2023-08-08T06:44:01;96340.81;;;17.06;nan
10014;BME280;45684;48.358;10.746;2023-08-08T06:46:29;96342.31;;;17.04;nan
10014;BME280;45684;48.358;10.746;2023-08-08T06:48:57;96344.09;;;17.12;nan
10014;BME280;45684;48.358;10.746;2023-08-08T06:51:26;96342.84;;;17.25;nan
10014;BME280;45684;48.358;10.746;2023-08-08T06:53:55;96348.44;;;17.48;nan
10014;BME280;45684;48.358;10.746;2023-08-08T06:56:23;96347.25;;;17.65;nan
10014;BME280;45684;48.358;10.746;2023-08-08T06:58:52;96344.47;;;17.81;nan
10014;BME280;45684;48.358;10.746;2023-08-08T07:01:20;96343.06;;;17.87;nan
10014;BME280;45684;48.358;10.746;2023-08-08T07:03:48;96342.63;;;17.85;nan
10014;BME280;45684;48.358;10.746;2023-08-08T07:06:17;96345.00;;;17.87;nan
10014;BME280;45684;48.358;10.746;2023-08-08T07:08:45;96335.94;;;17.82;nan
10014;BME280;45684;48.358;10.746;2023-08-08T07:11:14;96337.72;;;17.94;nan
10014;BME280;45684;48.358;10.746;2023-08-08T07:13:42;96336.22;;;17.97;nan
10014;BME280;45684;48.358;10.746;2023-08-08T07:16:10;96330.31;;;17.95;nan
10014;BME280;45684;48.358;10.746;2023-08-08T07:18:38;96328.03;;;17.97;nan
10014;BME280;45684;48.358;10.746;2023-08-08T07:21:06;96328.44;;;17.99;nan
10014;BME280;45684;48.358;10.746;2023-08-08T07:23:34;96320.81;;;18.08;nan
10014;BME280;45684;48.358;10.746;2023-08-08T07:26:01;96318.94;;;18.12;nan
10014;BME280;45684;48.358;10.746;2023-08-08T07:28:31;96318.31;;;18.19;nan
10014;BME280;45684;48.358;10.746;2023-08-08T07:30:59;96315.75;;;18.29;nan
10014;BME280;45684;48.358;10.746;2023-08-08T07:33:27;96314.38;;;18.39;nan
10014;BME280;45684;48.358;10.746;2023-08-08T07:35:55;96310.97;;;18.46;nan
10014;BME280;45684;48.358;10.746;2023-08-08T07:38:23;96310.63;;;18.47;nan
10014;BME280;45684;48.358;10.746;2023-08-08T07:40:50;96304.47;;;18.54;nan
10014;BME280;45684;48.358;10.746;2023-08-08T07:43:18;96307.44;;;18.68;nan
10014;BME280;45684;48.358;10.746;2023-08-08T07:45:52;96314.06;;;18.86;nan
10014;BME280;45684;48.358;10.746;2023-08-08T07:48:20;96310.13;;;18.84;nan
10014;BME280;45684;48.358;10.746;2023-08-08T07:50:48;96321.91;;;18.88;nan
10014;BME280;45684;48.358;10.746;2023-08-08T07:53:16;96316.63;;;18.99;nan
10014;BME280;45684;48.358;10.746;2023-08-08T07:55:44;96308.06;;;19.04;nan
10014;BME280;45684;48.358;10.746;2023-08-08T07:58:13;96303.84;;;19.10;nan
10014;BME280;45684;48.358;10.746;2023-08-08T08:00:41;96305.13;;;19.16;nan
10014;BME280;45684;48.358;10.746;2023-08-08T08:03:17;96309.16;;;19.22;nan
10014;BME280;45684;48.358;10.746;2023-08-08T08:05:45;96299.38;;;19.25;nan
10014;BME280;45684;48.358;10.746;2023-08-08T08:08:13;96292.91;;;19.36;nan
10014;BME280;45684;48.358;10.746;2023-08-08T08:10:41;96291.19;;;19.55;nan
10014;BME280;45684;48.358;10.746;2023-08-08T08:13:10;96298.16;;;19.75;nan
10014;BME280;45684;48.358;10.746;2023-08-08T08:15:38;96297.41;;;19.78;nan
10014;BME280;45684;48.358;10.746;2023-08-08T08:18:06;96296.75;;;19.88;nan
10014;BME280;45684;48.358;10.746;2023-08-08T08:20:35;96292.09;;;19.93;nan
10014;BME280;45684;48.358;10.746;2023-08-08T08:23:03;96290.88;;;19.90;nan
10014;BME280;45684;48.358;10.746;2023-08-08T08:25:35;96292.94;;;19.97;nan
10014;BME280;45684;48.358;10.746;2023-08-08T08:28:04;96292.22;;;20.03;nan
10014;BME280;45684;48.358;10.746;2023-08-08T08:30:32;96292.78;;;20.16;nan
10014;BME280;45684;48.358;10.746;2023-08-08T08:33:00;96290.03;;;20.16;nan
10014;BME280;45684;48.358;10.746;2023-08-08T08:35:28;96291.38;;;20.33;nan
10014;BME280;45684;48.358;10.746;2023-08-08T08:37:57;96289.53;;;20.44;nan
10014;BME280;45684;48.358;10.746;2023-08-08T08:40:26;96288.50;;;20.56;nan
10014;BME280;45684;48.358;10.746;2023-08-08T08:42:55;96291.75;;;20.69;nan
10014;BME280;45684;48.358;10.746;2023-08-08T08:45:23;96280.06;;;20.79;nan
10014;BME280;45684;48.358;10.746;2023-08-08T08:47:53;96278.56;;;20.88;nan
10014;BME280;45684;48.358;10.746;2023-08-08T08:50:26;96277.47;;;20.97;nan
10014;BME280;45684;48.358;10.746;2023-08-08T08:52:56;96277.22;;;21.16;nan
10014;BME280;45684;48.358;10.746;2023-08-08T08:55:26;96279.97;;;21.16;nan
10014;BME280;45684;48.358;10.746;2023-08-08T08:57:55;96279.19;;;21.19;nan
10014;BME280;45684;48.358;10.746;2023-08-08T09:00:23;96278.97;;;21.38;nan
10014;BME280;45684;48.358;10.746;2023-08-08T09:02:53;96286.94;;;21.54;nan
10014;BME280;45684;48.358;10.746;2023-08-08T09:05:24;96274.03;;;21.69;nan
10014;BME280;45684;48.358;10.746;2023-08-08T09:07:52;96273.31;;;21.83;nan
10014;BME280;45684;48.358;10.746;2023-08-08T09:10:21;96268.66;;;21.98;nan
10014;BME280;45684;48.358;10.746;2023-08-08T09:12:52;96270.72;;;22.15;nan
10014;BME280;45684;48.358;10.746;2023-08-08T09:15:20;96277.09;;;22.62;nan
10014;BME280;45684;48.358;10.746;2023-08-08T09:17:48;96267.31;;;23.04;nan
10014;BME280;45684;48.358;10.746;2023-08-08T09:20:17;96263.34;;;23.12;nan
10014;BME280;45684;48.358;10.746;2023-08-08T09:22:45;96265.28;;;23.29;nan
10014;BME280;45684;48.358;10.746;2023-08-08T09:25:13;96263.31;;;23.26;nan
10014;BME280;45684;48.358;10.746;2023-08-08T09:27:42;96268.47;;;23.06;nan
10014;BME280;45684;48.358;10.746;2023-08-08T09:30:11;96264.09;;;23.27;nan
10014;BME280;45684;48.358;10.746;2023-08-08T09:32:39;96272.41;;;22.98;nan
10014;BME280;45684;48.358;10.746;2023-08-08T09:35:07;96267.66;;;22.81;nan
10014;BME280;45684;48.358;10.746;2023-08-08T09:37:37;96269.25;;;22.71;nan
10014;BME280;45684;48.358;10.746;2023-08-08T09:40:06;96271.19;;;22.60;nan
10014;BME280;45684;48.358;10.746;2023-08-08T09:42:35;96263.31;;;22.69;nan
10014;BME280;45684;48.358;10.746;2023-08-08T09:45:05;96262.53;;;22.86;nan
10014;BME280;45684;48.358;10.746;2023-08-08T09:47:33;96264.53;;;23.04;nan
10014;BME280;45684;48.358;10.746;2023-08-08T09:50:03;96261.34;;;23.41;nan
10014;BME280;45684;48.358;10.746;2023-08-08T09:52:33;96261.72;;;23.39;nan
10014;BME280;45684;48.358;10.746;2023-08-08T09:55:03;96260.19;;;23.21;nan
10014;BME280;45684;48.358;10.746;2023-08-08T09:57:38;96250.69;;;23.39;nan
10014;BME280;45684;48.358;10.746;2023-08-08T10:00:09;96251.00;;;23.77;nan
10014;BME280;45684;48.358;10.746;2023-08-08T10:02:43;96251.75;;;23.81;nan
10014;BME280;45684;48.358;10.746;2023-08-08T10:05:12;96257.28;;;23.88;nan
10014;BME280;45684;48.358;10.746;2023-08-08T10:07:41;96263.53;;;23.96;nan
10014;BME280;45684;48.358;10.746;2023-08-08T10:10:10;96254.09;;;23.93;nan
10014;BME280;45684;48.358;10.746;2023-08-08T10:12:38;96252.03;;;24.12;nan
10014;BME280;45684;48.358;10.746;2023-08-08T10:15:09;96256.25;;;24.34;nan
10014;BME280;45684;48.358;10.746;2023-08-08T10:17:38;96253.03;;;24.47;nan
10014;BME280;45684;48.358;10.746;2023-08-08T10:20:09;96253.78;;;24.58;nan
10014;BME280;45684;48.358;10.746;2023-08-08T10:22:42;96252.69;;;24.34;nan
10014;BME280;45684;48.358;10.746;2023-08-08T10:25:18;96250.84;;;24.16;nan
10014;BME280;45684;48.358;10.746;2023-08-08T10:27:46;96256.66;;;24.33;nan
10014;BME280;45684;48.358;10.746;2023-08-08T10:30:15;96244.16;;;24.73;nan
10014;BME280;45684;48.358;10.746;2023-08-08T10:32:44;96246.59;;;24.64;nan
10014;BME280;45684;48.358;10.746;2023-08-08T10:35:14;96241.13;;;24.57;nan
10014;BME280;45684;48.358;10.746;2023-08-08T10:37:52;96248.41;;;24.26;nan
10014;BME280;45684;48.358;10.746;2023-08-08T10:40:21;96244.00;;;24.35;nan
10014;BME280;45684;48.358;10.746;2023-08-08T10:42:49;96241.66;;;24.37;nan
10014;BME280;45684;48.358;10.746;2023-08-08T10:45:18;96225.09;;;24.86;nan
10014;BME280;45684;48.358;10.746;2023-08-08T10:47:46;96223.94;;;25.28;nan
10014;BME280;45684;48.358;10.746;2023-08-08T10:50:15;96221.44;;;25.75;nan
10014;BME280;45684;48.358;10.746;2023-08-08T10:52:52;96226.13;;;25.82;nan
10014;BME280;45684;48.358;10.746;2023-08-08T10:55:21;96225.84;;;25.69;nan
10014;BME280;45684;48.358;10.746;2023-08-08T10:57:57;96220.69;;;26.05;nan
10014;BME280;45684;48.358;10.746;2023-08-08T11:00:29;96219.91;;;26.05;nan
10014;BME280;45684;48.358;10.746;2023-08-08T11:02:58;96215.81;;;26.16;nan
10014;BME280;45684;48.358;10.746;2023-08-08T11:05:28;96221.44;;;26.09;nan
10014;BME280;45684;48.358;10.746;2023-08-08T11:07:57;96217.88;;;26.09;nan
10014;BME280;45684;48.358;10.746;2023-08-08T11:10:26;96209.75;;;25.94;nan
10014;BME280;45684;48.358;10.746;2023-08-08T11:12:58;96213.41;;;25.50;nan
10014;BME280;45684;48.358;10.746;2023-08-08T11:15:31;96215.69;;;24.76;nan
10014;BME280;45684;48.358;10.746;2023-08-08T11:18:00;96211.75;;;24.77;nan
10014;BME280;45684;48.358;10.746;2023-08-08T11:20:29;96194.63;;;24.89;nan
10014;BME280;45684;48.358;10.746;2023-08-08T11:22:58;96201.06;;;25.24;nan
10014;BME280;45684;48.358;10.746;2023-08-08T11:25:28;96197.94;;;25.90;nan
10014;BME280;45684;48.358;10.746;2023-08-08T11:27:57;96209.38;;;26.23;nan
10014;BME280;45684;48.358;10.746;2023-08-08T11:30:30;96203.13;;;26.15;nan
10014;BME280;45684;48.358;10.746;2023-08-08T11:32:59;96198.06;;;26.37;nan
10014;BME280;45684;48.358;10.746;2023-08-08T11:35:31;96201.53;;;26.72;nan
10014;BME280;45684;48.358;10.746;2023-08-08T11:38:03;96193.16;;;26.49;nan
10014;BME280;45684;48.358;10.746;2023-08-08T11:40:32;96189.88;;;26.00;nan
10014;BME280;45684;48.358;10.746;2023-08-08T11:43:00;96193.34;;;26.34;nan
10014;BME280;45684;48.358;10.746;2023-08-08T11:45:31;96193.75;;;26.63;nan
10014;BME280;45684;48.358;10.746;2023-08-08T11:47:59;96185.47;;;26.83;nan
10014;BME280;45684;48.358;10.746;2023-08-08T11:50:27;96178.63;;;27.35;nan
10014;BME280;45684;48.358;10.746;2023-08-08T11:52:56;96184.44;;;27.20;nan
10014;BME280;45684;48.358;10.746;2023-08-08T11:55:27;96174.69;;;27.32;nan
10014;BME280;45684;48.358;10.746;2023-08-08T11:57:56;96185.63;;;27.63;nan
10014;BME280;45684;48.358;10.746;2023-08-08T12:00:27;96189.69;;;27.98;nan
10014;BME280;45684;48.358;10.746;2023-08-08T12:02:58;96169.97;;;27.73;nan
10014;BME280;45684;48.358;10.746;2023-08-08T12:05:28;96175.84;;;27.55;nan
10014;BME280;45684;48.358;10.746;2023-08-08T12:07:58;96181.47;;;27.08;nan
10014;BME280;45684;48.358;10.746;2023-08-08T12:10:26;96172.63;;;27.16;nan
10014;BME280;45684;48.358;10.746;2023-08-08T12:12:56;96180.91;;;27.60;nan
10014;BME280;45684;48.358;10.746;2023-08-08T12:15:28;96169.59;;;27.90;nan
10014;BME280;45684;48.358;10.746;2023-08-08T12:17:59;96170.38;;;27.91;nan
10014;BME280;45684;48.358;10.746;2023-08-08T12:20:28;96166.00;;;27.50;nan
10014;BME280;45684;48.358;10.746;2023-08-08T12:22:57;96182.03;;;26.76;nan
10014;BME280;45684;48.358;10.746;2023-08-08T12:25:25;96180.94;;;25.88;nan
10014;BME280;45684;48.358;10.746;2023-08-08T12:27:53;96180.56;;;25.86;nan
10014;BME280;45684;48.358;10.746;2023-08-08T12:30:21;96180.88;;;25.92;nan
10014;BME280;45684;48.358;10.746;2023-08-08T12:32:49;96178.34;;;26.05;nan
10014;BME280;45684;48.358;10.746;2023-08-08T12:35:19;96179.81;;;26.40;nan
10014;BME280;45684;48.358;10.746;2023-08-08T12:37:47;96183.84;;;26.86;nan
10014;BME280;45684;48.358;10.746;2023-08-08T12:40:15;96165.94;;;27.34;nan
10014;BME280;45684;48.358;10.746;2023-08-08T12:42:43;96182.22;;;26.88;nan
10014;BME280;45684;48.358;10.746;2023-08-08T12:45:10;96181.53;;;26.30;nan
10014;BME280;45684;48.358;10.746;2023-08-08T12:47:38;96181.03;;;25.81;nan
10014;BME280;45684;48.358;10.746;2023-08-08T12:50:07;96183.66;;;25.24;nan
10014;BME280;45684;48.358;10.746;2023-08-08T12:52:36;96184.06;;;24.77;nan
10014;BME280;45684;48.358;10.746;2023-08-08T12:55:07;96174.31;;;25.07;nan
10014;BME280;45684;48.358;10.746;2023-08-08T12:57:35;96174.13;;;25.59;nan
10014;BME280;45684;48.358;10.746;2023-08-08T13:00:05;96169.31;;;26.55;nan
10014;BME280;45684;48.358;10.746;2023-08-08T13:02:35;96169.78;;;26.96;nan
10014;BME280;45684;48.358;10.746;2023-08-08T13:05:04;96161.47;;;27.40;nan
10014;BME280;45684;48.358;10.746;2023-08-08T13:07:33;96169.00;;;27.99;nan
10014;BME280;45684;48.358;10.746;2023-08-08T13:10:03;96164.41;;;28.45;nan
10014;BME280;45684;48.358;10.746;2023-08-08T13:12:31;96163.47;;;28.68;nan
10014;BME280;45684;48.358;10.746;2023-08-08T13:19:24;96163.50;;;27.16;nan
10014;BME280;45684;48.358;10.746;2023-08-08T13:21:54;96164.69;;;27.38;nan